sensor_id;sensor_type;location;lat;lon;timestamp;P1;durP1;ratioP1;P2;durP2;ratioP2
12554;SDS011;6343;50.868;4.700;2024-01-27T00:00:30;12.47;;;5.50;;
12554;SDS011;6343;50.868;4.700;2024-01-27T00:02:56;14.00;;;6.60;;
12554;SDS011;6343;50.868;4.700;2024-01-27T00:05:22;14.17;;;6.50;;
12554;SDS011;6343;50.868;4.700;2024-01-27T00:07:48;16.50;;;6.40;;
12554;SDS011;6343;50.868;4.700;2024-01-27T00:10:15;14.83;;;6.60;;
12554;SDS011;6343;50.868;4.700;2024-01-27T00:12:41;18.87;;;6.30;;
12554;SDS011;6343;50.868;4.700;2024-01-27T00:15:07;17.87;;;7.70;;
12554;SDS011;6343;50.868;4.700;2024-01-27T00:17:34;18.17;;;6.60;;
12554;SDS011;6343;50.868;4.700;2024-01-27T00:20:01;14.40;;;6.93;;
12554;SDS011;6343;50.868;4.700;2024-01-27T00:22:28;13.97;;;6.03;;
12554;SDS011;6343;50.868;4.700;2024-01-27T00:24:54;14.17;;;7.30;;
12554;SDS011;6343;50.868;4.700;2024-01-27T00:27:20;16.80;;;6.73;;
12554;SDS011;6343;50.868;4.700;2024-01-27T00:29:46;12.50;;;5.70;;
12554;SDS011;6343;50.868;4.700;2024-01-27T00:32:12;15.53;;;5.63;;
12554;SDS011;6343;50.868;4.700;2024-01-27T00:34:38;15.57;;;5.90;;
12554;SDS011;6343;50.868;4.700;2024-01-27T00:37:04;9.70;;;5.37;;
12554;SDS011;6343;50.868;4.700;2024-01-27T00:39:31;16.20;;;6.10;;
12554;SDS011;6343;50.868;4.700;2024-01-27T00:41:58;14.57;;;5.90;;
12554;SDS011;6343;50.868;4.700;2024-01-27T00:44:24;14.63;;;5.90;;
12554;SDS011;6343;50.868;4.700;2024-01-27T00:46:50;14.23;;;6.33;;
12554;SDS011;6343;50.868;4.700;2024-01-27T00:49:16;11.13;;;6.00;;
12554;SDS011;6343;50.868;4.700;2024-01-27T00:51:43;12.73;;;6.00;;
12554;SDS011;6343;50.868;4.700;2024-01-27T00:54:09;18.40;;;6.50;;
12554;SDS011;6343;50.868;4.700;2024-01-27T00:56:35;16.47;;;6.30;;
12554;SDS011;6343;50.868;4.700;2024-01-27T00:59:01;14.77;;;7.73;;
12554;SDS011;6343;50.868;4.700;2024-01-27T01:01:27;17.37;;;6.10;;
12554;SDS011;6343;50.868;4.700;2024-01-27T01:03:54;20.03;;;6.13;;
12554;SDS011;6343;50.868;4.700;2024-01-27T01:06:21;18.03;;;6.67;;
12554;SDS011;6343;50.868;4.700;2024-01-27T01:08:47;15.70;;;5.93;;
12554;SDS011;6343;50.868;4.700;2024-01-27T01:11:13;17.30;;;6.00;;
12554;SDS011;6343;50.868;4.700;2024-01-27T01:13:40;17.53;;;6.53;;
12554;SDS011;6343;50.868;4.700;2024-01-27T01:16:06;18.23;;;6.13;;
12554;SDS011;6343;50.868;4.700;2024-01-27T01:18:33;20.13;;;6.93;;
12554;SDS011;6343;50.868;4.700;2024-01-27T01:20:59;14.67;;;6.17;;
12554;SDS011;6343;50.868;4.700;2024-01-27T01:23:25;9.77;;;6.20;;
12554;SDS011;6343;50.868;4.700;2024-01-27T01:25:51;12.83;;;6.47;;
12554;SDS011;6343;50.868;4.700;2024-01-27T01:28:17;15.57;;;6.00;;
12554;SDS011;6343;50.868;4.700;2024-01-27T01:30:44;11.57;;;6.43;;
12554;SDS011;6343;50.868;4.700;2024-01-27T01:33:11;12.90;;;6.33;;
12554;SDS011;6343;50.868;4.700;2024-01-27T01:35:37;19.67;;;6.50;;
12554;SDS011;6343;50.868;4.700;2024-01-27T01:38:03;14.03;;;5.70;;
12554;SDS011;6343;50.868;4.700;2024-01-27T01:40:29;15.57;;;5.93;;
12554;SDS011;6343;50.868;4.700;2024-01-27T01:42:55;20.90;;;8.80;;
12554;SDS011;6343;50.868;4.700;2024-01-27T01:45:21;25.37;;;9.97;;
12554;SDS011;6343;50.868;4.700;2024-01-27T01:47:47;25.63;;;10.73;;
12554;SDS011;6343;50.868;4.700;2024-01-27T01:50:14;19.67;;;9.37;;
12554;SDS011;6343;50.868;4.700;2024-01-27T01:52:40;18.57;;;6.00;;
12554;SDS011;6343;50.868;4.700;2024-01-27T01:55:06;18.87;;;6.37;;
12554;SDS011;6343;50.868;4.700;2024-01-27T01:57:33;13.97;;;6.17;;
12554;SDS011;6343;50.868;4.700;2024-01-27T01:59:59;18.63;;;7.30;;
12554;SDS011;6343;50.868;4.700;2024-01-27T02:02:27;17.83;;;8.53;;
12554;SDS011;6343;50.868;4.700;2024-01-27T02:04:53;17.73;;;7.40;;
12554;SDS011;6343;50.868;4.700;2024-01-27T02:07:19;16.60;;;6.43;;
12554;SDS011;6343;50.868;4.700;2024-01-27T02:09:45;18.77;;;6.80;;
12554;SDS011;6343;50.868;4.700;2024-01-27T02:12:11;15.83;;;5.83;;
12554;SDS011;6343;50.868;4.700;2024-01-27T02:14:37;12.63;;;4.80;;
12554;SDS011;6343;50.868;4.700;2024-01-27T02:17:03;12.67;;;5.03;;
12554;SDS011;6343;50.868;4.700;2024-01-27T02:19:31;10.33;;;4.97;;
12554;SDS011;6343;50.868;4.700;2024-01-27T02:21:57;10.67;;;5.03;;
12554;SDS011;6343;50.868;4.700;2024-01-27T02:24:23;11.77;;;4.93;;
12554;SDS011;6343;50.868;4.700;2024-01-27T02:26:49;13.17;;;4.40;;
12554;SDS011;6343;50.868;4.700;2024-01-27T02:29:15;7.93;;;4.37;;
12554;SDS011;6343;50.868;4.700;2024-01-27T02:31:41;10.97;;;4.77;;
12554;SDS011;6343;50.868;4.700;2024-01-27T02:34:07;12.17;;;4.60;;
12554;SDS011;6343;50.868;4.700;2024-01-27T02:36:34;16.93;;;4.77;;
12554;SDS011;6343;50.868;4.700;2024-01-27T02:39:00;10.30;;;4.97;;
12554;SDS011;6343;50.868;4.700;2024-01-27T02:41:26;13.17;;;4.77;;
12554;SDS011;6343;50.868;4.700;2024-01-27T02:43:52;12.20;;;5.47;;
12554;SDS011;6343;50.868;4.700;2024-01-27T02:46:19;12.63;;;4.87;;
12554;SDS011;6343;50.868;4.700;2024-01-27T02:48:46;15.20;;;4.80;;
12554;SDS011;6343;50.868;4.700;2024-01-27T02:51:12;10.63;;;5.17;;
12554;SDS011;6343;50.868;4.700;2024-01-27T02:53:39;14.93;;;4.83;;
12554;SDS011;6343;50.868;4.700;2024-01-27T02:56:08;10.60;;;4.63;;
12554;SDS011;6343;50.868;4.700;2024-01-27T02:58:34;10.10;;;5.40;;
12554;SDS011;6343;50.868;4.700;2024-01-27T03:01:00;12.43;;;4.87;;
12554;SDS011;6343;50.868;4.700;2024-01-27T03:03:26;7.17;;;4.03;;
12554;SDS011;6343;50.868;4.700;2024-01-27T03:05:54;10.40;;;5.10;;
12554;SDS011;6343;50.868;4.700;2024-01-27T03:08:20;10.17;;;4.47;;
12554;SDS011;6343;50.868;4.700;2024-01-27T03:10:46;10.90;;;4.53;;
12554;SDS011;6343;50.868;4.700;2024-01-27T03:13:12;12.63;;;5.77;;
12554;SDS011;6343;50.868;4.700;2024-01-27T03:15:38;10.77;;;4.37;;
12554;SDS011;6343;50.868;4.700;2024-01-27T03:18:04;11.73;;;5.27;;
12554;SDS011;6343;50.868;4.700;2024-01-27T03:20:30;19.60;;;5.27;;
12554;SDS011;6343;50.868;4.700;2024-01-27T03:22:57;10.70;;;4.73;;
12554;SDS011;6343;50.868;4.700;2024-01-27T03:25:24;10.00;;;4.27;;
12554;SDS011;6343;50.868;4.700;2024-01-27T03:27:50;14.03;;;4.63;;
12554;SDS011;6343;50.868;4.700;2024-01-27T03:30:17;10.93;;;4.47;;
12554;SDS011;6343;50.868;4.700;2024-01-27T03:32:43;13.40;;;4.77;;
12554;SDS011;6343;50.868;4.700;2024-01-27T03:35:09;11.37;;;5.23;;
12554;SDS011;6343;50.868;4.700;2024-01-27T03:37:35;13.03;;;4.60;;
12554;SDS011;6343;50.868;4.700;2024-01-27T03:40:01;12.10;;;4.60;;
12554;SDS011;6343;50.868;4.700;2024-01-27T03:42:27;9.63;;;4.50;;
12554;SDS011;6343;50.868;4.700;2024-01-27T03:44:54;17.20;;;5.67;;
12554;SDS011;6343;50.868;4.700;2024-01-27T03:47:20;14.17;;;4.30;;
12554;SDS011;6343;50.868;4.700;2024-01-27T03:49:47;13.30;;;5.77;;
12554;SDS011;6343;50.868;4.700;2024-01-27T03:52:13;16.17;;;5.53;;
12554;SDS011;6343;50.868;4.700;2024-01-27T03:54:39;10.47;;;4.57;;
12554;SDS011;6343;50.868;4.700;2024-01-27T03:57:05;9.17;;;4.60;;
12554;SDS011;6343;50.868;4.700;2024-01-27T03:59:31;16.80;;;5.53;;
12554;SDS011;6343;50.868;4.700;2024-01-27T04:01:57;14.23;;;5.77;;
12554;SDS011;6343;50.868;4.700;2024-01-27T04:04:23;12.43;;;5.57;;
12554;SDS011;6343;50.868;4.700;2024-01-27T04:06:50;14.90;;;6.00;;
12554;SDS011;6343;50.868;4.700;2024-01-27T04:09:16;12.33;;;5.80;;
12554;SDS011;6343;50.868;4.700;2024-01-27T04:11:44;11.70;;;5.13;;
12554;SDS011;6343;50.868;4.700;2024-01-27T04:14:10;14.20;;;4.80;;
12554;SDS011;6343;50.868;4.700;2024-01-27T04:16:36;9.07;;;4.07;;
12554;SDS011;6343;50.868;4.700;2024-01-27T04:19:02;10.53;;;5.00;;
12554;SDS011;6343;50.868;4.700;2024-01-27T04:21:28;10.83;;;5.20;;
12554;SDS011;6343;50.868;4.700;2024-01-27T04:23:54;11.67;;;5.50;;
12554;SDS011;6343;50.868;4.700;2024-01-27T04:26:20;12.47;;;5.30;;
12554;SDS011;6343;50.868;4.700;2024-01-27T04:28:46;9.93;;;4.80;;
12554;SDS011;6343;50.868;4.700;2024-01-27T04:31:12;10.40;;;5.37;;
12554;SDS011;6343;50.868;4.700;2024-01-27T04:33:38;16.03;;;5.43;;
12554;SDS011;6343;50.868;4.700;2024-01-27T04:36:04;14.07;;;6.50;;
12554;SDS011;6343;50.868;4.700;2024-01-27T04:38:32;13.00;;;5.60;;
12554;SDS011;6343;50.868;4.700;2024-01-27T04:40:58;10.47;;;4.47;;
12554;SDS011;6343;50.868;4.700;2024-01-27T04:43:24;10.23;;;5.13;;
12554;SDS011;6343;50.868;4.700;2024-01-27T04:45:50;9.40;;;4.63;;
12554;SDS011;6343;50.868;4.700;2024-01-27T04:48:16;10.57;;;5.20;;
12554;SDS011;6343;50.868;4.700;2024-01-27T04:50:42;16.33;;;5.90;;
12554;SDS011;6343;50.868;4.700;2024-01-27T04:53:09;11.47;;;5.70;;
12554;SDS011;6343;50.868;4.700;2024-01-27T04:55:35;17.60;;;5.43;;
12554;SDS011;6343;50.868;4.700;2024-01-27T04:58:01;8.17;;;4.60;;
12554;SDS011;6343;50.868;4.700;2024-01-27T05:00:27;14.13;;;4.50;;
12554;SDS011;6343;50.868;4.700;2024-01-27T05:02:53;10.27;;;4.87;;
12554;SDS011;6343;50.868;4.700;2024-01-27T05:05:20;10.37;;;4.20;;
12554;SDS011;6343;50.868;4.700;2024-01-27T05:07:46;10.47;;;4.50;;
12554;SDS011;6343;50.868;4.700;2024-01-27T05:10:14;11.90;;;5.57;;
12554;SDS011;6343;50.868;4.700;2024-01-27T05:12:40;13.00;;;5.13;;
12554;SDS011;6343;50.868;4.700;2024-01-27T05:15:07;8.70;;;4.93;;
12554;SDS011;6343;50.868;4.700;2024-01-27T05:17:33;8.73;;;4.40;;
12554;SDS011;6343;50.868;4.700;2024-01-27T05:19:59;13.57;;;5.27;;
12554;SDS011;6343;50.868;4.700;2024-01-27T05:22:29;12.37;;;5.70;;
12554;SDS011;6343;50.868;4.700;2024-01-27T05:24:55;11.80;;;5.53;;
12554;SDS011;6343;50.868;4.700;2024-01-27T05:27:21;13.80;;;6.67;;
12554;SDS011;6343;50.868;4.700;2024-01-27T05:29:47;16.80;;;5.77;;
12554;SDS011;6343;50.868;4.700;2024-01-27T05:32:14;13.60;;;5.43;;
12554;SDS011;6343;50.868;4.700;2024-01-27T05:34:40;13.57;;;6.23;;
12554;SDS011;6343;50.868;4.700;2024-01-27T05:37:10;13.00;;;6.07;;
12554;SDS011;6343;50.868;4.700;2024-01-27T05:39:36;12.17;;;4.60;;
12554;SDS011;6343;50.868;4.700;2024-01-27T05:42:02;10.93;;;5.30;;
12554;SDS011;6343;50.868;4.700;2024-01-27T05:44:28;14.53;;;5.70;;
12554;SDS011;6343;50.868;4.700;2024-01-27T05:46:54;12.40;;;5.90;;
12554;SDS011;6343;50.868;4.700;2024-01-27T05:49:21;14.87;;;5.80;;
12554;SDS011;6343;50.868;4.700;2024-01-27T05:51:47;10.73;;;5.50;;
12554;SDS011;6343;50.868;4.700;2024-01-27T05:54:15;13.43;;;5.57;;
12554;SDS011;6343;50.868;4.700;2024-01-27T05:56:42;14.73;;;5.70;;
12554;SDS011;6343;50.868;4.700;2024-01-27T05:59:10;9.83;;;5.00;;
12554;SDS011;6343;50.868;4.700;2024-01-27T06:01:38;12.33;;;4.80;;
12554;SDS011;6343;50.868;4.700;2024-01-27T06:04:06;13.30;;;4.93;;
12554;SDS011;6343;50.868;4.700;2024-01-27T06:06:32;16.63;;;5.70;;
12554;SDS011;6343;50.868;4.700;2024-01-27T06:08:58;9.73;;;5.20;;
12554;SDS011;6343;50.868;4.700;2024-01-27T06:11:25;16.73;;;5.77;;
12554;SDS011;6343;50.868;4.700;2024-01-27T06:13:51;13.73;;;6.00;;
12554;SDS011;6343;50.868;4.700;2024-01-27T06:16:17;10.63;;;5.57;;
12554;SDS011;6343;50.868;4.700;2024-01-27T06:18:48;15.20;;;6.13;;
12554;SDS011;6343;50.868;4.700;2024-01-27T06:21:14;14.50;;;6.00;;
12554;SDS011;6343;50.868;4.700;2024-01-27T06:23:40;16.30;;;6.10;;
12554;SDS011;6343;50.868;4.700;2024-01-27T06:26:06;17.00;;;5.87;;
12554;SDS011;6343;50.868;4.700;2024-01-27T06:28:33;13.30;;;5.73;;
12554;SDS011;6343;50.868;4.700;2024-01-27T06:31:00;16.83;;;6.10;;
12554;SDS011;6343;50.868;4.700;2024-01-27T06:33:26;16.23;;;6.07;;
12554;SDS011;6343;50.868;4.700;2024-01-27T06:35:52;12.67;;;5.40;;
12554;SDS011;6343;50.868;4.700;2024-01-27T06:38:18;9.83;;;5.27;;
12554;SDS011;6343;50.868;4.700;2024-01-27T06:40:44;12.13;;;6.37;;
12554;SDS011;6343;50.868;4.700;2024-01-27T06:43:11;20.33;;;6.53;;
12554;SDS011;6343;50.868;4.700;2024-01-27T06:45:38;16.30;;;5.93;;
12554;SDS011;6343;50.868;4.700;2024-01-27T06:48:04;11.17;;;6.33;;
12554;SDS011;6343;50.868;4.700;2024-01-27T06:50:31;14.97;;;6.43;;
12554;SDS011;6343;50.868;4.700;2024-01-27T06:52:57;15.70;;;5.77;;
12554;SDS011;6343;50.868;4.700;2024-01-27T06:55:24;16.03;;;6.43;;
12554;SDS011;6343;50.868;4.700;2024-01-27T06:57:50;14.83;;;6.30;;
12554;SDS011;6343;50.868;4.700;2024-01-27T07:00:16;13.30;;;6.20;;
12554;SDS011;6343;50.868;4.700;2024-01-27T07:02:43;15.10;;;5.90;;
12554;SDS011;6343;50.868;4.700;2024-01-27T07:05:09;14.10;;;6.07;;
12554;SDS011;6343;50.868;4.700;2024-01-27T07:07:36;14.03;;;5.93;;
12554;SDS011;6343;50.868;4.700;2024-01-27T07:10:03;13.40;;;5.93;;
12554;SDS011;6343;50.868;4.700;2024-01-27T07:12:29;21.47;;;5.43;;
12554;SDS011;6343;50.868;4.700;2024-01-27T07:14:55;23.90;;;6.70;;
12554;SDS011;6343;50.868;4.700;2024-01-27T07:17:21;15.97;;;6.17;;
12554;SDS011;6343;50.868;4.700;2024-01-27T07:19:47;23.43;;;7.37;;
12554;SDS011;6343;50.868;4.700;2024-01-27T07:22:13;14.47;;;5.83;;
12554;SDS011;6343;50.868;4.700;2024-01-27T07:24:39;15.53;;;5.93;;
12554;SDS011;6343;50.868;4.700;2024-01-27T07:27:06;21.73;;;6.53;;
12554;SDS011;6343;50.868;4.700;2024-01-27T07:29:32;13.50;;;6.10;;
12554;SDS011;6343;50.868;4.700;2024-01-27T07:31:58;15.90;;;6.57;;
12554;SDS011;6343;50.868;4.700;2024-01-27T07:34:24;15.93;;;5.60;;
12554;SDS011;6343;50.868;4.700;2024-01-27T07:36:50;12.23;;;5.20;;
12554;SDS011;6343;50.868;4.700;2024-01-27T07:39:16;19.23;;;6.67;;
12554;SDS011;6343;50.868;4.700;2024-01-27T07:41:42;17.80;;;6.80;;
12554;SDS011;6343;50.868;4.700;2024-01-27T07:46:35;15.80;;;6.53;;
12554;SDS011;6343;50.868;4.700;2024-01-27T07:49:01;15.73;;;6.43;;
12554;SDS011;6343;50.868;4.700;2024-01-27T07:51:30;12.87;;;6.60;;
12554;SDS011;6343;50.868;4.700;2024-01-27T07:53:57;10.90;;;6.57;;
12554;SDS011;6343;50.868;4.700;2024-01-27T07:56:23;18.07;;;5.73;;
12554;SDS011;6343;50.868;4.700;2024-01-27T07:58:49;11.03;;;5.67;;
12554;SDS011;6343;50.868;4.700;2024-01-27T08:01:15;14.33;;;6.00;;
12554;SDS011;6343;50.868;4.700;2024-01-27T08:03:41;11.77;;;5.60;;
12554;SDS011;6343;50.868;4.700;2024-01-27T08:06:17;14.83;;;5.90;;
12554;SDS011;6343;50.868;4.700;2024-01-27T08:08:45;15.83;;;6.30;;
12554;SDS011;6343;50.868;4.700;2024-01-27T08:11:11;16.33;;;6.10;;
12554;SDS011;6343;50.868;4.700;2024-01-27T08:13:37;15.17;;;6.60;;
12554;SDS011;6343;50.868;4.700;2024-01-27T08:16:03;17.40;;;6.00;;
12554;SDS011;6343;50.868;4.700;2024-01-27T08:18:30;13.53;;;6.17;;
12554;SDS011;6343;50.868;4.700;2024-01-27T08:20:56;12.27;;;6.10;;
12554;SDS011;6343;50.868;4.700;2024-01-27T08:23:23;12.03;;;6.30;;
12554;SDS011;6343;50.868;4.700;2024-01-27T08:25:49;10.93;;;6.27;;
12554;SDS011;6343;50.868;4.700;2024-01-27T08:28:18;24.83;;;6.10;;
12554;SDS011;6343;50.868;4.700;2024-01-27T08:30:45;13.37;;;5.70;;
12554;SDS011;6343;50.868;4.700;2024-01-27T08:33:11;15.90;;;6.50;;
12554;SDS011;6343;50.868;4.700;2024-01-27T08:35:37;12.63;;;5.97;;
12554;SDS011;6343;50.868;4.700;2024-01-27T08:38:03;22.63;;;6.47;;
12554;SDS011;6343;50.868;4.700;2024-01-27T08:40:31;12.43;;;6.47;;
12554;SDS011;6343;50.868;4.700;2024-01-27T08:42:57;12.20;;;5.93;;
12554;SDS011;6343;50.868;4.700;2024-01-27T08:45:23;16.33;;;6.77;;
12554;SDS011;6343;50.868;4.700;2024-01-27T08:47:50;20.47;;;7.07;;
12554;SDS011;6343;50.868;4.700;2024-01-27T08:50:17;17.70;;;5.83;;
12554;SDS011;6343;50.868;4.700;2024-01-27T08:52:43;18.60;;;6.00;;
12554;SDS011;6343;50.868;4.700;2024-01-27T08:55:09;15.67;;;6.60;;
12554;SDS011;6343;50.868;4.700;2024-01-27T08:57:35;15.87;;;7.23;;
12554;SDS011;6343;50.868;4.700;2024-01-27T09:00:01;11.97;;;5.77;;
12554;SDS011;6343;50.868;4.700;2024-01-27T09:02:28;18.60;;;6.40;;
12554;SDS011;6343;50.868;4.700;2024-01-27T09:04:54;22.47;;;7.07;;
12554;SDS011;6343;50.868;4.700;2024-01-27T09:07:21;17.27;;;6.40;;
12554;SDS011;6343;50.868;4.700;2024-01-27T09:09:47;13.40;;;5.83;;
12554;SDS011;6343;50.868;4.700;2024-01-27T09:12:13;11.67;;;6.10;;
12554;SDS011;6343;50.868;4.700;2024-01-27T09:14:40;16.40;;;6.70;;
12554;SDS011;6343;50.868;4.700;2024-01-27T09:17:06;20.20;;;6.43;;
12554;SDS011;6343;50.868;4.700;2024-01-27T09:19:32;13.97;;;6.17;;
12554;SDS011;6343;50.868;4.700;2024-01-27T09:21:58;13.50;;;5.83;;
12554;SDS011;6343;50.868;4.700;2024-01-27T09:24:24;12.53;;;5.63;;
12554;SDS011;6343;50.868;4.700;2024-01-27T09:26:50;22.37;;;6.17;;
12554;SDS011;6343;50.868;4.700;2024-01-27T09:29:16;14.73;;;5.97;;
12554;SDS011;6343;50.868;4.700;2024-01-27T09:31:42;16.13;;;5.97;;
12554;SDS011;6343;50.868;4.700;2024-01-27T09:34:09;16.90;;;5.10;;
12554;SDS011;6343;50.868;4.700;2024-01-27T09:36:35;13.10;;;5.23;;
12554;SDS011;6343;50.868;4.700;2024-01-27T09:39:01;16.60;;;6.40;;
12554;SDS011;6343;50.868;4.700;2024-01-27T09:41:30;18.53;;;5.43;;
12554;SDS011;6343;50.868;4.700;2024-01-27T09:44:00;14.50;;;5.73;;
12554;SDS011;6343;50.868;4.700;2024-01-27T09:46:29;15.73;;;5.73;;
12554;SDS011;6343;50.868;4.700;2024-01-27T09:48:56;10.77;;;5.30;;
12554;SDS011;6343;50.868;4.700;2024-01-27T09:51:22;22.47;;;6.20;;
12554;SDS011;6343;50.868;4.700;2024-01-27T09:53:49;17.77;;;5.57;;
12554;SDS011;6343;50.868;4.700;2024-01-27T09:56:18;14.23;;;4.93;;
12554;SDS011;6343;50.868;4.700;2024-01-27T09:58:45;15.30;;;5.70;;
12554;SDS011;6343;50.868;4.700;2024-01-27T10:01:12;16.97;;;5.23;;
12554;SDS011;6343;50.868;4.700;2024-01-27T10:03:38;14.50;;;5.27;;
12554;SDS011;6343;50.868;4.700;2024-01-27T10:06:07;15.40;;;5.77;;
12554;SDS011;6343;50.868;4.700;2024-01-27T10:08:34;11.73;;;3.93;;
12554;SDS011;6343;50.868;4.700;2024-01-27T10:11:04;14.43;;;4.70;;
12554;SDS011;6343;50.868;4.700;2024-01-27T10:13:32;12.77;;;4.80;;
12554;SDS011;6343;50.868;4.700;2024-01-27T10:16:02;15.07;;;4.70;;
12554;SDS011;6343;50.868;4.700;2024-01-27T10:18:29;15.90;;;5.30;;
12554;SDS011;6343;50.868;4.700;2024-01-27T10:20:55;17.20;;;4.43;;
12554;SDS011;6343;50.868;4.700;2024-01-27T10:23:21;12.40;;;4.60;;
12554;SDS011;6343;50.868;4.700;2024-01-27T10:25:47;10.90;;;4.03;;
12554;SDS011;6343;50.868;4.700;2024-01-27T10:28:13;10.47;;;4.50;;
12554;SDS011;6343;50.868;4.700;2024-01-27T10:30:39;20.13;;;4.83;;
12554;SDS011;6343;50.868;4.700;2024-01-27T10:33:09;13.27;;;4.97;;
12554;SDS011;6343;50.868;4.700;2024-01-27T10:35:40;19.97;;;4.77;;
12554;SDS011;6343;50.868;4.700;2024-01-27T10:38:06;10.93;;;4.03;;
12554;SDS011;6343;50.868;4.700;2024-01-27T10:40:32;17.87;;;3.90;;
12554;SDS011;6343;50.868;4.700;2024-01-27T10:43:05;10.27;;;3.30;;
12554;SDS011;6343;50.868;4.700;2024-01-27T10:45:38;14.73;;;3.87;;
12554;SDS011;6343;50.868;4.700;2024-01-27T10:48:05;18.60;;;4.37;;
12554;SDS011;6343;50.868;4.700;2024-01-27T10:50:35;11.43;;;3.63;;
12554;SDS011;6343;50.868;4.700;2024-01-27T10:53:03;11.20;;;3.73;;
12554;SDS011;6343;50.868;4.700;2024-01-27T10:55:30;15.53;;;4.77;;
12554;SDS011;6343;50.868;4.700;2024-01-27T10:57:57;14.30;;;3.67;;
12554;SDS011;6343;50.868;4.700;2024-01-27T11:00:27;13.03;;;4.03;;
12554;SDS011;6343;50.868;4.700;2024-01-27T11:02:54;12.93;;;4.00;;
12554;SDS011;6343;50.868;4.700;2024-01-27T11:05:22;15.50;;;3.47;;
12554;SDS011;6343;50.868;4.700;2024-01-27T11:07:50;14.40;;;3.97;;
12554;SDS011;6343;50.868;4.700;2024-01-27T11:10:17;10.80;;;4.70;;
12554;SDS011;6343;50.868;4.700;2024-01-27T11:12:43;10.33;;;4.37;;
12554;SDS011;6343;50.868;4.700;2024-01-27T11:15:09;13.20;;;4.30;;
12554;SDS011;6343;50.868;4.700;2024-01-27T11:17:39;10.23;;;3.80;;
12554;SDS011;6343;50.868;4.700;2024-01-27T11:20:07;9.93;;;3.83;;
12554;SDS011;6343;50.868;4.700;2024-01-27T11:22:33;11.50;;;3.77;;
12554;SDS011;6343;50.868;4.700;2024-01-27T11:27:42;13.57;;;3.10;;
12554;SDS011;6343;50.868;4.700;2024-01-27T11:32:54;15.30;;;3.80;;
12554;SDS011;6343;50.868;4.700;2024-01-27T11:35:21;11.27;;;3.90;;
12554;SDS011;6343;50.868;4.700;2024-01-27T11:37:47;9.00;;;2.97;;
12554;SDS011;6343;50.868;4.700;2024-01-27T11:40:13;20.53;;;3.67;;
12554;SDS011;6343;50.868;4.700;2024-01-27T11:42:41;23.93;;;4.13;;
12554;SDS011;6343;50.868;4.700;2024-01-27T11:45:10;11.03;;;3.30;;
12554;SDS011;6343;50.868;4.700;2024-01-27T11:47:36;15.23;;;3.83;;
12554;SDS011;6343;50.868;4.700;2024-01-27T11:50:02;12.27;;;3.53;;
12554;SDS011;6343;50.868;4.700;2024-01-27T11:52:29;9.13;;;2.73;;
12554;SDS011;6343;50.868;4.700;2024-01-27T11:54:55;9.33;;;3.47;;
12554;SDS011;6343;50.868;4.700;2024-01-27T11:57:22;9.03;;;3.13;;
12554;SDS011;6343;50.868;4.700;2024-01-27T11:59:48;11.77;;;3.83;;
12554;SDS011;6343;50.868;4.700;2024-01-27T12:02:14;8.10;;;3.37;;
12554;SDS011;6343;50.868;4.700;2024-01-27T12:04:40;14.30;;;3.43;;
12554;SDS011;6343;50.868;4.700;2024-01-27T12:07:07;9.63;;;2.93;;
12554;SDS011;6343;50.868;4.700;2024-01-27T12:09:35;16.00;;;3.27;;
12554;SDS011;6343;50.868;4.700;2024-01-27T12:12:02;10.53;;;3.53;;
12554;SDS011;6343;50.868;4.700;2024-01-27T12:14:40;9.43;;;3.60;;
12554;SDS011;6343;50.868;4.700;2024-01-27T12:17:09;8.70;;;3.10;;
12554;SDS011;6343;50.868;4.700;2024-01-27T12:19:35;5.57;;;2.83;;
12554;SDS011;6343;50.868;4.700;2024-01-27T12:22:02;10.67;;;3.27;;
12554;SDS011;6343;50.868;4.700;2024-01-27T12:24:28;11.97;;;2.60;;
12554;SDS011;6343;50.868;4.700;2024-01-27T12:26:55;7.97;;;2.53;;
12554;SDS011;6343;50.868;4.700;2024-01-27T12:29:25;8.80;;;2.60;;
12554;SDS011;6343;50.868;4.700;2024-01-27T12:31:52;10.47;;;3.10;;
12554;SDS011;6343;50.868;4.700;2024-01-27T12:34:19;12.70;;;2.43;;
12554;SDS011;6343;50.868;4.700;2024-01-27T12:36:46;7.83;;;2.63;;
12554;SDS011;6343;50.868;4.700;2024-01-27T12:39:12;6.37;;;2.30;;
12554;SDS011;6343;50.868;4.700;2024-01-27T12:41:39;8.63;;;2.63;;
12554;SDS011;6343;50.868;4.700;2024-01-27T12:44:05;9.33;;;2.57;;
12554;SDS011;6343;50.868;4.700;2024-01-27T12:46:31;6.13;;;2.23;;
12554;SDS011;6343;50.868;4.700;2024-01-27T12:48:59;10.50;;;2.73;;
12554;SDS011;6343;50.868;4.700;2024-01-27T12:51:25;9.20;;;3.27;;
12554;SDS011;6343;50.868;4.700;2024-01-27T12:53:51;7.77;;;1.97;;
12554;SDS011;6343;50.868;4.700;2024-01-27T12:56:18;6.80;;;2.20;;
12554;SDS011;6343;50.868;4.700;2024-01-27T12:58:52;9.30;;;2.40;;
12554;SDS011;6343;50.868;4.700;2024-01-27T13:01:22;11.27;;;2.63;;
12554;SDS011;6343;50.868;4.700;2024-01-27T13:03:48;7.33;;;2.60;;
12554;SDS011;6343;50.868;4.700;2024-01-27T13:06:17;17.23;;;2.93;;
12554;SDS011;6343;50.868;4.700;2024-01-27T13:08:44;12.13;;;3.10;;
12554;SDS011;6343;50.868;4.700;2024-01-27T13:11:10;11.93;;;2.37;;
12554;SDS011;6343;50.868;4.700;2024-01-27T13:13:39;9.40;;;2.63;;
12554;SDS011;6343;50.868;4.700;2024-01-27T13:16:05;6.37;;;2.80;;
12554;SDS011;6343;50.868;4.700;2024-01-27T13:18:31;12.93;;;3.13;;
12554;SDS011;6343;50.868;4.700;2024-01-27T13:20:58;6.30;;;1.83;;
12554;SDS011;6343;50.868;4.700;2024-01-27T13:23:24;6.60;;;2.37;;
12554;SDS011;6343;50.868;4.700;2024-01-27T13:25:50;6.30;;;2.10;;
12554;SDS011;6343;50.868;4.700;2024-01-27T13:28:17;7.20;;;2.00;;
12554;SDS011;6343;50.868;4.700;2024-01-27T13:30:43;9.17;;;2.27;;
12554;SDS011;6343;50.868;4.700;2024-01-27T13:33:12;8.30;;;2.20;;
12554;SDS011;6343;50.868;4.700;2024-01-27T13:35:44;5.40;;;1.90;;
12554;SDS011;6343;50.868;4.700;2024-01-27T13:39:01;6.67;;;2.03;;
12554;SDS011;6343;50.868;4.700;2024-01-27T13:41:30;10.47;;;2.53;;
12554;SDS011;6343;50.868;4.700;2024-01-27T13:43:56;6.87;;;2.27;;
12554;SDS011;6343;50.868;4.700;2024-01-27T13:46:22;9.60;;;2.00;;
12554;SDS011;6343;50.868;4.700;2024-01-27T13:52:21;5.80;;;2.17;;
12554;SDS011;6343;50.868;4.700;2024-01-27T14:02:06;4.43;;;1.70;;
12554;SDS011;6343;50.868;4.700;2024-01-27T14:07:04;3.17;;;1.50;;
12554;SDS011;6343;50.868;4.700;2024-01-27T14:09:35;4.60;;;1.53;;
12554;SDS011;6343;50.868;4.700;2024-01-27T14:12:01;7.67;;;2.27;;
12554;SDS011;6343;50.868;4.700;2024-01-27T14:14:27;7.07;;;2.40;;
12554;SDS011;6343;50.868;4.700;2024-01-27T14:16:54;9.10;;;2.27;;
12554;SDS011;6343;50.868;4.700;2024-01-27T14:19:23;8.80;;;2.27;;
12554;SDS011;6343;50.868;4.700;2024-01-27T14:21:52;10.40;;;2.50;;
12554;SDS011;6343;50.868;4.700;2024-01-27T14:27:59;33.17;;;3.10;;
12554;SDS011;6343;50.868;4.700;2024-01-27T14:30:55;4.13;;;1.73;;
12554;SDS011;6343;50.868;4.700;2024-01-27T14:33:21;12.90;;;2.43;;
12554;SDS011;6343;50.868;4.700;2024-01-27T14:35:51;8.80;;;2.80;;
12554;SDS011;6343;50.868;4.700;2024-01-27T14:38:25;13.43;;;3.43;;
12554;SDS011;6343;50.868;4.700;2024-01-27T14:40:52;8.80;;;2.50;;
12554;SDS011;6343;50.868;4.700;2024-01-27T14:43:18;4.63;;;2.23;;
12554;SDS011;6343;50.868;4.700;2024-01-27T14:45:44;7.43;;;2.33;;
12554;SDS011;6343;50.868;4.700;2024-01-27T14:48:10;7.83;;;2.47;;
12554;SDS011;6343;50.868;4.700;2024-01-27T14:50:37;8.60;;;2.63;;
12554;SDS011;6343;50.868;4.700;2024-01-27T14:53:03;6.57;;;2.20;;
12554;SDS011;6343;50.868;4.700;2024-01-27T14:55:33;5.70;;;2.30;;
12554;SDS011;6343;50.868;4.700;2024-01-27T14:57:59;6.17;;;2.60;;
12554;SDS011;6343;50.868;4.700;2024-01-27T15:00:28;5.63;;;2.03;;
12554;SDS011;6343;50.868;4.700;2024-01-27T15:02:54;16.20;;;3.07;;
12554;SDS011;6343;50.868;4.700;2024-01-27T15:05:21;8.47;;;2.60;;
12554;SDS011;6343;50.868;4.700;2024-01-27T15:07:47;6.80;;;2.43;;
12554;SDS011;6343;50.868;4.700;2024-01-27T15:10:13;6.00;;;2.40;;
12554;SDS011;6343;50.868;4.700;2024-01-27T15:12:39;9.00;;;3.03;;